Wetterdaten: Woche 26.01.15 - 01.02.15 (KW5)
Datum Zeit Temp. A. Feuchte A. Luftdruck Regen Wind Richtung Taupunkt Windchill Windben
26.01.2015 00:00 1,7 C 82 % 1025,6 hPa 0,0 l/m 8,1 km/h N -1,1 C 0,2 C 22,5 km/h
26.01.2015 01:00 1,3 C 83 % 1025,8 hPa 0,0 l/m 5,6 km/h N -1,4 C 1,3 C 17,7 km/h
26.01.2015 02:00 1,1 C 82 % 1026,0 hPa 0,0 l/m 5,6 km/h N -1,7 C 1,1 C 16,9 km/h
26.01.2015 03:00 1,0 C 82 % 1025,9 hPa 0,0 l/m 6,4 km/h N -1,8 C 1,1 C 17,7 km/h
26.01.2015 04:00 0,7 C 83 % 1026,0 hPa 0,0 l/m 4,0 km/h N -1,9 C 0,7 C 16,1 km/h
26.01.2015 05:00 0,5 C 84 % 1026,0 hPa 0,0 l/m 1,6 km/h N -2,0 C 0,5 C 10,5 km/h
26.01.2015 06:00 0,8 C 84 % 1026,2 hPa 0,0 l/m 3,2 km/h N -1,7 C 0,8 C 13,7 km/h
26.01.2015 07:00 0,9 C 83 % 1026,4 hPa 0,0 l/m 2,4 km/h N -1,8 C 0,9 C 12,1 km/h
26.01.2015 08:00 0,8 C 83 % 1026,6 hPa 0,0 l/m 1,6 km/h N -1,8 C 0,8 C 9,7 km/h
26.01.2015 09:00 1,3 C 82 % 1026,4 hPa 0,0 l/m 2,7 km/h N -1,5 C 1,3 C 8,8 km/h
26.01.2015 10:00 1,5 C 81 % 1026,4 hPa 0,0 l/m 5,4 km/h N -1,3 C 1,5 C 14,9 km/h
26.01.2015 11:00 1,8 C 80 % 1026,0 hPa 0,0 l/m 6,8 km/h N -1,3 C 1,2 C 16,9 km/h
26.01.2015 12:00 1,8 C 79 % 1025,4 hPa 0,0 l/m 3,6 km/h N -1,4 C 1,8 C 10,5 km/h
26.01.2015 13:00 2,4 C 76 % 1024,6 hPa 0,0 l/m 5,5 km/h N -1,5 C 2,4 C 15,7 km/h
26.01.2015 14:00 3,4 C 71 % 1023,7 hPa 0,0 l/m 5,8 km/h N -1,3 C 3,3 C 14,5 km/h
26.01.2015 15:00 3,4 C 69 % 1023,1 hPa 0,0 l/m 5,5 km/h N -1,8 C 2,9 C 15,7 km/h
26.01.2015 16:00 2,3 C 72 % 1022,9 hPa 0,0 l/m 3,0 km/h N -2,2 C 2,3 C 9,3 km/h
26.01.2015 17:00 1,4 C 75 % 1022,9 hPa 0,0 l/m 2,8 km/h N -2,5 C 1,4 C 10,1 km/h
26.01.2015 18:00 0,9 C 77 % 1022,6 hPa 0,0 l/m 1,1 km/h N -2,7 C 0,9 C 6,4 km/h
26.01.2015 19:00 -0,5 C 79 % 1022,4 hPa 0,0 l/m 0,0 km/h N -3,7 C -0,5 C 0,0 km/h
26.01.2015 20:00 -1,9 C 82 % 1022,0 hPa 0,0 l/m 0,0 km/h N -4,6 C -1,9 C 0,0 km/h
26.01.2015 21:00 -2,2 C 84 % 1021,5 hPa 0,0 l/m 0,1 km/h N -4,6 C -2,2 C 1,2 km/h
26.01.2015 22:00 -2,7 C 85 % 1020,8 hPa 0,0 l/m 0,1 km/h N -4,9 C -2,7 C 0,8 km/h
26.01.2015 23:00 -3,4 C 85 % 1020,1 hPa 0,0 l/m 0,1 km/h N -5,6 C -3,4 C 1,2 km/h
27.01.2015 00:00 -3,8 C 85 % 1019,1 hPa 0,0 l/m 0,1 km/h N -5,9 C -3,8 C 0,8 km/h
27.01.2015 01:00 -4,5 C 86 % 1018,2 hPa 0,0 l/m 0,0 km/h N -6,5 C -4,5 C 0,4 km/h
27.01.2015 02:00 -4,9 C 86 % 1017,2 hPa 0,0 l/m 0,0 km/h N -6,8 C -4,9 C 0,0 km/h
27.01.2015 03:00 -5,0 C 86 % 1016,4 hPa 0,0 l/m 0,1 km/h N -6,9 C -5,0 C 1,6 km/h
27.01.2015 04:00 -3,7 C 86 % 1016,1 hPa 0,0 l/m 0,5 km/h N -5,7 C -3,7 C 4,0 km/h
27.01.2015 05:00 -2,5 C 86 % 1015,5 hPa 0,0 l/m 0,1 km/h N -4,5 C -2,5 C 1,2 km/h
27.01.2015 06:00 -2,1 C 86 % 1015,3 hPa 0,0 l/m 0,1 km/h N -4,2 C -2,1 C 0,8 km/h
27.01.2015 07:00 -1,5 C 85 % 1015,5 hPa 0,0 l/m 0,0 km/h N -3,7 C -1,5 C 0,8 km/h
27.01.2015 08:00 -0,1 C 84 % 1015,6 hPa 0,0 l/m 2,0 km/h N -2,5 C -0,1 C 7,6 km/h
27.01.2015 09:00 1,6 C 86 % 1015,8 hPa 0,8 l/m 10,3 km/h N -0,5 C -1,9 C 26,1 km/h
27.01.2015 10:00 2,2 C 85 % 1015,8 hPa 1,6 l/m 11,6 km/h N -0,2 C -2,2 C 30,2 km/h
27.01.2015 11:00 3,1 C 79 % 1015,6 hPa 0,3 l/m 11,3 km/h N -0,2 C -0,9 C 26,9 km/h
27.01.2015 12:00 3,7 C 76 % 1015,5 hPa 0,0 l/m 10,2 km/h N -0,2 C 0,4 C 24,9 km/h
27.01.2015 13:00 3,8 C 77 % 1015,2 hPa 0,0 l/m 10,6 km/h N 0,0 C 0,3 C 26,1 km/h
27.01.2015 14:00 3,6 C 78 % 1015,5 hPa 0,0 l/m 9,0 km/h N 0,1 C 1,4 C 22,5 km/h
27.01.2015 15:00 3,3 C 79 % 1015,8 hPa 0,3 l/m 9,1 km/h N -0,0 C 0,9 C 22,5 km/h
27.01.2015 16:00 2,9 C 81 % 1016,1 hPa 0,0 l/m 10,8 km/h N -0,1 C -0,9 C 25,8 km/h
27.01.2015 17:00 2,7 C 81 % 1016,7 hPa 0,0 l/m 8,4 km/h N -0,2 C 0,6 C 22,5 km/h
27.01.2015 18:00 2,5 C 81 % 1017,1 hPa 0,0 l/m 9,9 km/h N -0,4 C -0,6 C 22,9 km/h
27.01.2015 19:00 2,5 C 81 % 1017,5 hPa 0,0 l/m 10,5 km/h N -0,5 C -1,1 C 25,7 km/h
27.01.2015 20:00 2,3 C 81 % 1017,8 hPa 0,0 l/m 6,9 km/h N -0,6 C 1,2 C 19,7 km/h
27.01.2015 21:00 2,3 C 81 % 1018,1 hPa 0,0 l/m 7,0 km/h N -0,7 C 1,5 C 17,3 km/h
27.01.2015 22:00 2,4 C 80 % 1018,3 hPa 0,0 l/m 9,3 km/h N -0,7 C -0,3 C 22,1 km/h
27.01.2015 23:00 2,3 C 81 % 1018,5 hPa 0,0 l/m 8,4 km/h N -0,6 C 0,4 C 20,9 km/h
28.01.2015 00:00 2,2 C 82 % 1018,6 hPa 0,0 l/m 8,1 km/h N -0,6 C 0,6 C 20,5 km/h
28.01.2015 01:00 1,9 C 82 % 1018,4 hPa 0,0 l/m 8,9 km/h N -0,8 C -0,4 C 20,9 km/h
28.01.2015 02:00 1,8 C 81 % 1018,4 hPa 0,0 l/m 8,5 km/h N -1,0 C -0,1 C 21,3 km/h
28.01.2015 03:00 1,7 C 80 % 1018,1 hPa 0,0 l/m 6,8 km/h N -1,4 C 1,3 C 18,5 km/h
28.01.2015 04:00 1,7 C 79 % 1018,0 hPa 0,0 l/m 7,8 km/h N -1,5 C 0,3 C 22,1 km/h
28.01.2015 05:00 1,3 C 79 % 1018,1 hPa 0,0 l/m 2,7 km/h N -1,9 C 1,3 C 12,5 km/h
28.01.2015 06:00 1,4 C 80 % 1018,4 hPa 0,0 l/m 7,3 km/h N -1,7 C 0,1 C 19,7 km/h
28.01.2015 07:00 1,6 C 80 % 1018,3 hPa 0,0 l/m 8,0 km/h N -1,5 C 0,1 C 19,3 km/h
28.01.2015 08:00 2,0 C 79 % 1018,5 hPa 0,0 l/m 9,2 km/h N -1,3 C -0,6 C 23,7 km/h
28.01.2015 09:00 2,8 C 76 % 1018,3 hPa 0,0 l/m 8,5 km/h N -1,0 C 1,0 C 23,7 km/h
28.01.2015 10:00 4,0 C 73 % 1018,1 hPa 0,0 l/m 6,4 km/h N -0,4 C 3,5 C 17,7 km/h
28.01.2015 11:00 4,9 C 67 % 1017,4 hPa 0,0 l/m 7,5 km/h N -0,7 C 3,7 C 20,1 km/h
28.01.2015 12:00 4,9 C 66 % 1016,8 hPa 0,0 l/m 7,8 km/h N -1,0 C 3,7 C 20,5 km/h
28.01.2015 13:00 5,4 C 64 % 1015,8 hPa 0,0 l/m 9,6 km/h N -0,8 C 2,8 C 25,7 km/h
28.01.2015 14:00 5,1 C 64 % 1014,9 hPa 0,0 l/m 6,5 km/h N -1,1 C 4,7 C 21,3 km/h
28.01.2015 15:00 4,6 C 64 % 1014,4 hPa 0,0 l/m 4,8 km/h N -1,5 C 4,6 C 18,5 km/h
28.01.2015 16:00 3,3 C 69 % 1013,9 hPa 0,0 l/m 1,1 km/h N -1,8 C 3,3 C 6,0 km/h
28.01.2015 17:00 1,4 C 73 % 1013,8 hPa 0,0 l/m 0,2 km/h N -2,8 C 1,4 C 1,2 km/h
28.01.2015 18:00 -0,2 C 80 % 1013,2 hPa 0,0 l/m 0,3 km/h N -3,3 C -0,2 C 2,0 km/h
28.01.2015 19:00 -1,3 C 82 % 1012,2 hPa 0,0 l/m 0,0 km/h N -4,0 C -1,3 C 0,4 km/h
28.01.2015 20:00 -1,5 C 83 % 1010,5 hPa 0,0 l/m 0,9 km/h N -4,0 C -1,5 C 5,6 km/h
28.01.2015 21:00 0,6 C 75 % 1008,4 hPa 0,0 l/m 3,9 km/h N -3,4 C 0,6 C 13,3 km/h
28.01.2015 22:00 -0,6 C 76 % 1007,0 hPa 0,0 l/m 0,9 km/h N -4,3 C -0,6 C 7,2 km/h
28.01.2015 23:00 -0,3 C 76 % 1006,3 hPa 0,0 l/m 0,9 km/h N -4,0 C -0,3 C 9,2 km/h
29.01.2015 00:00 -0,1 C 75 % 1004,5 hPa 0,0 l/m 3,4 km/h N -4,0 C -0,1 C 14,5 km/h
29.01.2015 01:00 0,9 C 72 % 1002,4 hPa 0,0 l/m 2,9 km/h N -3,6 C 0,9 C 13,7 km/h
29.01.2015 02:00 1,4 C 69 % 1001,5 hPa 0,0 l/m 2,4 km/h N -3,7 C 1,4 C 8,9 km/h
29.01.2015 03:00 1,9 C 66 % 1001,3 hPa 0,0 l/m 0,5 km/h N -3,7 C 1,9 C 5,2 km/h
29.01.2015 04:00 1,6 C 68 % 1000,7 hPa 0,0 l/m 0,3 km/h N -3,6 C 1,6 C 3,6 km/h
29.01.2015 05:00 1,4 C 72 % 1000,8 hPa 0,0 l/m 0,3 km/h N -3,1 C 1,4 C 1,6 km/h
29.01.2015 06:00 0,8 C 78 % 1000,5 hPa 0,0 l/m 0,3 km/h N -2,5 C 0,8 C 3,6 km/h
29.01.2015 07:00 0,4 C 82 % 1000,5 hPa 0,0 l/m 0,0 km/h N -2,3 C 0,4 C 0,4 km/h
29.01.2015 08:00 0,5 C 84 % 1000,4 hPa 0,0 l/m 0,0 km/h N -1,9 C 0,5 C 0,0 km/h
29.01.2015 09:00 1,1 C 85 % 1000,4 hPa 0,0 l/m 0,0 km/h N -1,2 C 1,1 C 0,8 km/h
29.01.2015 10:00 2,3 C 83 % 1000,3 hPa 0,0 l/m 0,4 km/h N -0,3 C 2,3 C 4,8 km/h
29.01.2015 11:00 3,1 C 78 % 1000,1 hPa 0,0 l/m 0,3 km/h N -0,3 C 3,1 C 3,2 km/h
29.01.2015 12:00 4,3 C 72 % 999,2 hPa 0,0 l/m 3,6 km/h N -0,4 C 4,3 C 9,6 km/h
29.01.2015 13:00 4,2 C 71 % 998,2 hPa 0,0 l/m 1,0 km/h N -0,7 C 4,2 C 5,6 km/h
29.01.2015 14:00 3,8 C 72 % 997,3 hPa 0,0 l/m 1,6 km/h N -0,7 C 3,8 C 7,2 km/h
29.01.2015 15:00 3,4 C 79 % 996,7 hPa 0,0 l/m 3,0 km/h N 0,1 C 3,4 C 13,3 km/h
29.01.2015 16:00 2,5 C 82 % 996,1 hPa 0,0 l/m 2,3 km/h N -0,2 C 2,5 C 9,2 km/h
29.01.2015 17:00 2,0 C 84 % 995,7 hPa 0,0 l/m 1,9 km/h N -0,4 C 2,0 C 8,1 km/h
29.01.2015 18:00 1,6 C 84 % 994,8 hPa 0,0 l/m 1,1 km/h N -0,8 C 1,6 C 6,8 km/h
29.01.2015 19:00 1,1 C 85 % 993,6 hPa 0,0 l/m 1,5 km/h N -1,2 C 1,1 C 8,1 km/h
29.01.2015 20:00 0,3 C 86 % 992,1 hPa 0,0 l/m 4,5 km/h N -1,8 C 0,3 C 13,7 km/h
29.01.2015 21:00 -0,1 C 86 % 990,4 hPa 0,0 l/m 4,9 km/h N -2,2 C -0,1 C 14,5 km/h
29.01.2015 22:00 -0,3 C 86 % 988,4 hPa 0,0 l/m 0,6 km/h N -2,5 C -0,3 C 6,4 km/h
29.01.2015 23:00 -0,3 C 86 % 986,8 hPa 0,0 l/m 1,9 km/h N -2,4 C -0,3 C 10,9 km/h
30.01.2015 00:00 0,4 C 88 % 984,7 hPa 0,0 l/m 2,4 km/h N -1,5 C 0,4 C 14,5 km/h
30.01.2015 01:00 1,1 C 85 % 983,4 hPa 0,0 l/m 3,7 km/h N -1,1 C 1,1 C 12,9 km/h
30.01.2015 02:00 1,3 C 84 % 982,0 hPa 0,0 l/m 6,6 km/h N -1,0 C 0,8 C 19,7 km/h
30.01.2015 03:00 1,8 C 85 % 980,2 hPa 0,0 l/m 5,3 km/h N -0,5 C 1,8 C 17,7 km/h
30.01.2015 04:00 2,1 C 85 % 978,9 hPa 0,0 l/m 3,3 km/h N -0,2 C 2,1 C 15,3 km/h
30.01.2015 05:00 2,6 C 84 % 977,8 hPa 0,0 l/m 6,2 km/h N 0,2 C 2,5 C 19,7 km/h
30.01.2015 06:00 2,8 C 84 % 977,5 hPa 0,0 l/m 6,1 km/h N 0,4 C 2,7 C 18,1 km/h
30.01.2015 07:00 2,9 C 84 % 977,2 hPa 0,0 l/m 5,3 km/h N 0,4 C 2,9 C 18,5 km/h
30.01.2015 08:00 2,6 C 85 % 977,4 hPa 0,0 l/m 4,0 km/h N 0,3 C 2,6 C 12,1 km/h
30.01.2015 09:00 2,8 C 85 % 977,7 hPa 0,0 l/m 1,8 km/h N 0,5 C 2,8 C 7,6 km/h
30.01.2015 10:00 2,6 C 85 % 978,4 hPa 2,1 l/m 0,7 km/h N 0,4 C 2,6 C 4,8 km/h
30.01.2015 11:00 1,3 C 85 % 978,1 hPa 1,8 l/m 0,2 km/h N -0,9 C 1,3 C 2,4 km/h
30.01.2015 12:00 2,3 C 86 % 977,4 hPa 3,1 l/m 9,9 km/h N 0,2 C -0,8 C 24,1 km/h
30.01.2015 13:00 2,3 C 86 % 976,4 hPa 0,8 l/m 15,9 km/h N 0,1 C -4,7 C 35,8 km/h
30.01.2015 14:00 2,1 C 84 % 976,3 hPa 0,8 l/m 16,0 km/h N -0,2 C -4,9 C 36,6 km/h
30.01.2015 15:00 1,8 C 83 % 976,7 hPa 0,0 l/m 15,2 km/h N -0,8 C -4,9 C 36,6 km/h
30.01.2015 16:00 1,2 C 82 % 976,8 hPa 0,0 l/m 19,2 km/h N -1,6 C -7,7 C 40,2 km/h
30.01.2015 17:00 1,6 C 74 % 977,2 hPa 0,0 l/m 16,5 km/h N -2,6 C -5,9 C 40,6 km/h
30.01.2015 18:00 1,6 C 71 % 977,9 hPa 0,0 l/m 16,6 km/h N -3,1 C -5,9 C 39,4 km/h
30.01.2015 19:00 1,5 C 70 % 978,3 hPa 0,0 l/m 16,0 km/h N -3,3 C -5,7 C 36,2 km/h
30.01.2015 20:00 1,5 C 70 % 978,2 hPa 0,0 l/m 14,9 km/h N -3,5 C -5,1 C 33,4 km/h
30.01.2015 21:00 1,3 C 70 % 978,3 hPa 0,0 l/m 12,0 km/h N -3,6 C -3,4 C 29,0 km/h
30.01.2015 22:00 1,3 C 70 % 978,5 hPa 0,0 l/m 9,8 km/h N -3,6 C -1,8 C 24,1 km/h
30.01.2015 23:00 1,1 C 70 % 978,6 hPa 0,0 l/m 11,4 km/h N -3,8 C -3,3 C 27,0 km/h
31.01.2015 00:00 0,8 C 71 % 979,0 hPa 0,0 l/m 10,2 km/h N -3,8 C -2,8 C 27,0 km/h
31.01.2015 01:00 0,3 C 74 % 979,4 hPa 0,0 l/m 5,3 km/h N -3,9 C 0,3 C 16,1 km/h
31.01.2015 02:00 -0,3 C 76 % 979,7 hPa 0,0 l/m 1,3 km/h N -4,1 C -0,3 C 8,4 km/h
31.01.2015 03:00 -0,7 C 79 % 980,1 hPa 0,0 l/m 0,7 km/h N -3,9 C -0,7 C 5,2 km/h
31.01.2015 04:00 -1,1 C 78 % 980,7 hPa 0,0 l/m 0,4 km/h N -4,4 C -1,1 C 3,6 km/h
31.01.2015 05:00 -1,8 C 79 % 981,7 hPa 0,0 l/m 0,0 km/h N -4,9 C -1,8 C 0,0 km/h
31.01.2015 06:00 -1,8 C 79 % 982,2 hPa 0,0 l/m 0,0 km/h N -4,9 C -1,8 C 0,0 km/h
31.01.2015 07:00 -1,8 C 79 % 983,4 hPa 0,0 l/m 0,0 km/h N -4,9 C -1,8 C 0,0 km/h
31.01.2015 08:00 -0,9 C 77 % 984,5 hPa 0,0 l/m 1,6 km/h N -4,4 C -0,9 C 4,8 km/h
31.01.2015 09:00 2,4 C 70 % 985,0 hPa 0,0 l/m 5,5 km/h N -2,6 C 2,4 C 18,1 km/h
31.01.2015 10:00 4,0 C 62 % 985,3 hPa 0,0 l/m 2,6 km/h N -2,6 C 4,0 C 11,7 km/h
31.01.2015 11:00 5,2 C 58 % 985,5 hPa 0,0 l/m 3,9 km/h N -2,5 C 5,2 C 12,5 km/h
31.01.2015 12:00 4,8 C 59 % 985,8 hPa 0,0 l/m 2,7 km/h N -2,6 C 4,8 C 12,5 km/h
31.01.2015 13:00 4,5 C 59 % 986,1 hPa 0,0 l/m 1,6 km/h N -2,9 C 4,5 C 8,1 km/h
31.01.2015 14:00 5,6 C 57 % 986,5 hPa 0,0 l/m 0,7 km/h N -2,4 C 5,6 C 6,4 km/h
31.01.2015 15:00 5,7 C 58 % 987,1 hPa 0,0 l/m 0,4 km/h N -2,0 C 5,7 C 4,4 km/h
31.01.2015 16:00 5,2 C 62 % 987,5 hPa 0,0 l/m 0,1 km/h N -1,6 C 5,2 C 1,6 km/h
31.01.2015 17:00 2,5 C 68 % 988,3 hPa 0,0 l/m 0,0 km/h N -2,9 C 2,5 C 0,0 km/h
31.01.2015 18:00 -0,4 C 76 % 988,8 hPa 0,0 l/m 0,0 km/h N -4,2 C -0,4 C 0,4 km/h
31.01.2015 19:00 -1,5 C 82 % 989,5 hPa 0,0 l/m 0,1 km/h N -4,3 C -1,5 C 0,8 km/h
31.01.2015 20:00 -2,2 C 84 % 989,5 hPa 0,0 l/m 0,0 km/h N -4,6 C -2,2 C 2,0 km/h
31.01.2015 21:00 -2,8 C 84 % 989,8 hPa 0,0 l/m 0,0 km/h N -5,1 C -2,8 C 0,4 km/h
31.01.2015 22:00 -3,4 C 85 % 989,7 hPa 0,0 l/m 0,0 km/h N -5,5 C -3,4 C 0,0 km/h
31.01.2015 23:00 -3,8 C 86 % 989,8 hPa 0,0 l/m 0,0 km/h N -5,9 C -3,8 C 0,0 km/h
01.02.2015 00:00 -3,9 C 86 % 990,1 hPa 0,0 l/m 0,1 km/h N -5,9 C -3,9 C 1,6 km/h
01.02.2015 01:00 -4,3 C 86 % 989,9 hPa 0,0 l/m 0,2 km/h N -6,3 C -4,3 C 1,2 km/h
01.02.2015 02:00 -4,8 C 86 % 990,2 hPa 0,0 l/m 0,0 km/h N -6,7 C -4,8 C 0,0 km/h
01.02.2015 03:00 -5,1 C 86 % 990,3 hPa 0,0 l/m 0,1 km/h N -7,1 C -5,1 C 0,8 km/h
01.02.2015 04:00 -5,1 C 86 % 990,6 hPa 0,0 l/m 0,2 km/h N -7,1 C -5,1 C 1,6 km/h
01.02.2015 05:00 -4,9 C 86 % 991,0 hPa 0,0 l/m 0,2 km/h N -6,9 C -4,9 C 1,6 km/h
01.02.2015 06:00 -4,5 C 86 % 991,4 hPa 0,0 l/m 0,1 km/h N -6,5 C -4,5 C 1,6 km/h
01.02.2015 07:00 -4,5 C 86 % 992,3 hPa 0,0 l/m 0,0 km/h N -6,5 C -4,5 C 0,0 km/h
01.02.2015 08:00 -3,6 C 85 % 992,7 hPa 0,0 l/m 0,0 km/h N -5,7 C -3,6 C 0,0 km/h
01.02.2015 09:00 -2,5 C 85 % 993,0 hPa 0,0 l/m 0,2 km/h N -4,6 C -2,5 C 1,6 km/h
01.02.2015 10:00 -1,7 C 85 % 993,4 hPa 0,0 l/m 0,2 km/h N -3,9 C -1,7 C 1,6 km/h
01.02.2015 11:00 -0,4 C 85 % 993,6 hPa 0,0 l/m 0,2 km/h N -2,6 C -0,4 C 2,4 km/h
01.02.2015 12:00 0,7 C 86 % 993,4 hPa 0,0 l/m 0,4 km/h N -1,4 C 0,7 C 2,8 km/h
01.02.2015 13:00 1,4 C 84 % 993,0 hPa 0,0 l/m 0,2 km/h N -1,0 C 1,4 C 2,0 km/h
01.02.2015 14:00 2,9 C 79 % 993,0 hPa 0,0 l/m 0,3 km/h N -0,4 C 2,9 C 3,6 km/h
01.02.2015 15:00 2,5 C 78 % 993,3 hPa 0,0 l/m 0,1 km/h N -0,9 C 2,5 C 1,6 km/h
01.02.2015 16:00 2,1 C 79 % 993,7 hPa 0,0 l/m 0,1 km/h N -1,1 C 2,1 C 0,8 km/h
01.02.2015 17:00 1,0 C 80 % 994,3 hPa 0,0 l/m 0,0 km/h N -2,1 C 1,0 C 0,0 km/h
01.02.2015 18:00 -0,4 C 82 % 994,8 hPa 0,0 l/m 0,0 km/h N -3,2 C -0,4 C 0,0 km/h
01.02.2015 19:00 -0,9 C 84 % 995,2 hPa 0,0 l/m 0,0 km/h N -3,2 C -0,9 C 0,0 km/h
01.02.2015 20:00 -0,9 C 85 % 995,7 hPa 0,0 l/m 0,0 km/h N -3,1 C -0,9 C 0,0 km/h
01.02.2015 21:00 -0,9 C 86 % 996,0 hPa 0,0 l/m 0,0 km/h N -3,0 C -0,9 C 1,2 km/h
01.02.2015 22:00 1,7 C 78 % 995,9 hPa 0,0 l/m 4,8 km/h N -1,7 C 1,7 C 13,7 km/h
01.02.2015 23:00 2,6 C 70 % 995,9 hPa 0,0 l/m 4,5 km/h N -2,3 C 2,6 C 15,7 km/h
Min-Datum _ 27.01.15 31.01.15 30.01.15 - 26.01.15 - 27.01.15 30.01.15 26.01.15
_ Min-Zeit 03:15 11:45 13:45 - 18:45 - 03:00 16:30 18:45
Minimum _ -5,2 C 55 % 976,1 hPa - 0,0 km/h - -7,2 C -8,3 C 0,0 km/h
Max-Datum _ 28.01.15 30.01.15 26.01.15 30.01.15 30.01.15 - 30.01.15 31.01.15 30.01.15
_ Max-Zeit 13:30 00:00 08:00 12:00 16:30 - 10:00 14:15 17:15
Maximum _ 5,9 C 92 % 1026,7 hPa 3,1 l/m 20,1 km/h
N
- 0,8 C 5,8 C 49,9 km/h
N
Durchschnitt _ 0,9 C 79 % 1001,5 hPa #11,4 l/m 3,9 km/h N -2,4 C 0,0 C 11,6 km/h